Time;durP1;ratioP1;P1;durP2;ratioP2;P2;SDS_P1;SDS_P2;PMS_P1;PMS_P2;Temp;Humidity;BMP_temperature;BMP_pressure;BME280_temperature;BME280_humidity;BME280_pressure;Samples;Min_cycle;Max_cycle;Signal;HPM_P1;HPM_P2
2023/12/12 00:03:34;;;;;;;7.23;3.53;;;;;;;;;;20668099;28;20219;-83
2023/12/12 00:13:37;;;;;;;5.87;2.83;;;;;;;;;;20634712;28;20267;-83
2023/12/12 00:23:38;;;;;;;2.63;1.87;;;;;;;;;;20641374;28;20271;-83
2023/12/12 00:33:40;;;;;;;4.80;1.43;;;;;;;;;;20637474;28;20580;-82
2023/12/12 00:43:42;;;;;;;3.87;1.20;;;;;;;;;;20631036;28;20285;-82
2023/12/12 00:53:44;;;;;;;3.20;0.70;;;;;;;;;;20648371;28;20216;-84
2023/12/12 01:03:46;;;;;;;2.43;0.83;;;;;;;;;;20635018;28;20231;-83
2023/12/12 01:13:50;;;;;;;4.57;1.20;;;;;;;;;;20668428;28;20251;-83
2023/12/12 01:23:55;;;;;;;4.63;0.83;;;8.70;99.90;;;;;;20652234;28;20216;-83
2023/12/12 01:33:57;;;;;;;2.57;1.10;;;;;;;;;;20672581;28;20294;-83
2023/12/12 01:43:58;;;;;;;2.70;1.27;;;;;;;;;;20647795;28;20219;-82
2023/12/12 01:54:01;;;;;;;1.40;0.60;;;;;;;;;;20654570;28;20511;-82
2023/12/12 02:04:03;;;;;;;4.27;1.20;;;;;;;;;;20654719;28;20212;-83
2023/12/12 02:14:05;;;;;;;2.13;0.70;;;;;;;;;;20668496;28;20227;-83
2023/12/12 02:24:07;;;;;;;3.20;0.77;;;;;;;;;;20646207;28;20219;-82
2023/12/12 02:34:08;;;;;;;4.23;1.50;;;;;;;;;;20685087;28;20286;-83
2023/12/12 02:44:10;;;;;;;2.30;0.60;;;;;;;;;;20643902;28;20240;-83
2023/12/12 02:54:12;;;;;;;2.37;1.00;;;;;;;;;;20610312;28;20544;-83
2023/12/12 03:04:14;;;;;;;3.10;1.07;;;;;;;;;;20656664;28;20204;-83
2023/12/12 03:14:15;;;;;;;2.20;0.90;;;;;;;;;;20637083;28;20235;-83
2023/12/12 03:24:17;;;;;;;3.30;0.97;;;;;;;;;;20645602;28;20220;-83
2023/12/12 03:34:19;;;;;;;4.90;1.13;;;;;;;;;;20636584;28;20298;-83
2023/12/12 03:44:20;;;;;;;2.03;0.77;;;;;;;;;;20633001;28;20216;-82
2023/12/12 03:54:22;;;;;;;1.47;0.77;;;;;;;;;;20653382;28;20636;-82
2023/12/12 04:04:24;;;;;;;5.47;1.20;;;;;;;;;;20644965;28;20216;-82
2023/12/12 04:14:26;;;;;;;2.43;0.90;;;;;;;;;;20629870;28;20245;-81
2023/12/12 04:24:27;;;;;;;5.20;1.47;;;;;;;;;;20644970;28;20348;-82
2023/12/12 04:34:33;;;;;;;3.10;0.70;;;;;;;;;;20636360;28;20271;-80
2023/12/12 04:44:34;;;;;;;4.40;1.13;;;;;;;;;;20697928;28;20228;-80
2023/12/12 04:54:36;;;;;;;7.90;4.33;;;;;;;;;;20645626;28;20228;-85
2023/12/12 05:04:38;;;;;;;2.60;1.00;;;;;;;;;;20656223;28;20226;-85
2023/12/12 05:14:40;;;;;;;2.97;0.43;;;;;;;;;;20660008;28;20227;-85
2023/12/12 05:24:42;;;;;;;4.27;0.97;;;;;;;;;;20646831;28;20227;-83
2023/12/12 05:34:44;;;;;;;1.73;0.70;;;;;;;;;;20644887;28;20279;-85
2023/12/12 05:44:46;;;;;;;4.03;2.13;;;;;;;;;;20620036;28;20287;-85
2023/12/12 05:54:47;;;;;;;5.50;2.43;;;;;;;;;;20638075;28;20278;-84
2023/12/12 06:04:49;;;;;;;3.40;1.33;;;;;;;;;;20636323;28;20215;-89
2023/12/12 06:14:51;;;;;;;5.33;1.00;;;;;;;;;;20686733;28;20563;-86
2023/12/12 06:24:53;;;;;;;5.07;0.90;;;;;;;;;;20644987;28;20228;-85
2023/12/12 06:34:55;;;;;;;3.83;1.37;;;;;;;;;;20628899;28;20984;-86
2023/12/12 06:44:56;;;;;;;3.30;0.80;;;;;;;;;;20633626;28;20516;-86
2023/12/12 06:54:58;;;;;;;1.40;0.90;;;;;;;;;;20661658;28;20223;-86
2023/12/12 07:05:00;;;;;;;2.47;1.20;;;;;;;;;;20639032;28;20262;-85
2023/12/12 07:15:05;;;;;;;2.83;0.63;;;;;;;;;;20620615;28;20232;-87
2023/12/12 07:25:10;;;;;;;4.17;1.07;;;;;;;;;;20596774;28;20266;-86
2023/12/12 07:35:11;;;;;;;4.07;1.37;;;;;;;;;;20613164;28;20293;-83
2023/12/12 07:45:13;;;;;;;5.40;1.53;;;;;;;;;;20632454;28;20282;-85
2023/12/12 07:55:15;;;;;;;6.63;1.83;;;;;;;;;;20609894;28;20266;-86
2023/12/12 08:05:17;;;;;;;7.53;1.40;;;;;;;;;;20674164;28;20278;-85
2023/12/12 08:15:20;;;;;;;5.40;1.33;;;;;;;;;;20636595;28;20231;-85
2023/12/12 08:25:21;;;;;;;5.43;1.43;;;;;;;;;;20628662;28;20279;-85
2023/12/12 08:35:23;;;;;;;1.50;0.80;;;;;;;;;;20658715;28;20566;-86
2023/12/12 08:45:25;;;;;;;2.47;1.10;;;;;;;;;;20629660;28;20685;-86
2023/12/12 08:55:27;;;;;;;2.70;1.10;;;;;;;;;;20631512;28;20290;-85
2023/12/12 09:05:29;;;;;;;2.87;0.90;;;;;;;;;;20635987;28;20227;-85
2023/12/12 09:15:34;;;;;;;1.73;0.90;;;;;;;;;;20623569;28;20240;-86
2023/12/12 09:25:36;;;;;;;2.57;0.87;;;;;;;;;;20632450;28;20216;-86
2023/12/12 09:35:38;;;;;;;1.17;0.60;;;;;;;;;;20641438;28;20232;-85
2023/12/12 09:45:44;;;;;;;3.97;1.17;;;;;;;;;;20669508;28;20767;-83
2023/12/12 09:55:47;;;;;;;2.73;0.87;;;;;;;;;;20644733;28;20289;-85
2023/12/12 10:05:52;;;;;;;1.90;1.00;;;;;;;;;;20653083;28;20275;-85
2023/12/12 10:15:54;;;;;;;3.17;0.93;;;;;;;;;;20624396;28;20215;-85
2023/12/12 10:25:58;;;;;;;4.07;1.23;;;;;;;;;;20634023;28;20266;-85
2023/12/12 10:36:03;;;;;;;1.57;1.00;;;;;;;;;;20633720;28;20239;-86
2023/12/12 10:46:05;;;;;;;1.70;0.60;;;;;;;;;;20650519;28;20286;-84
2023/12/12 10:56:07;;;;;;;2.30;0.90;;;;;;;;;;20641195;28;20768;-83
2023/12/12 11:06:10;;;;;;;1.37;0.70;;;;;;;;;;20662398;28;20269;-84
2023/12/12 11:16:13;;;;;;;2.40;1.33;;;;;;;;;;20645074;28;20246;-83
2023/12/12 11:36:26;;;;;;;2.43;0.70;;;;;;;;;;20945519;28;21331;-68
2023/12/12 11:46:28;;;;;;;2.70;1.20;;;;;;;;;;20848289;28;20282;-68
2023/12/12 11:56:30;;;;;;;1.40;0.80;;;;;;;;;;20882326;28;20218;-68
2023/12/12 12:06:32;;;;;;;1.80;0.97;;;;;;;;;;20827509;28;20218;-69
2023/12/12 12:16:35;;;;;;;1.93;0.63;;;;;;;;;;20841024;28;20295;-71
2023/12/12 12:26:37;;;;;;;2.47;0.70;;;;;;;;;;20858437;28;20762;-69
2023/12/12 12:36:38;;;;;;;1.33;0.80;;;;;;;;;;20860855;28;20311;-69
2023/12/12 12:46:53;;;;;;;1.50;0.80;;;;;;;;;;20809222;28;20245;-69
2023/12/12 12:56:55;;;;;;;6.87;1.17;;;;;;;;;;20802243;28;20533;-69
2023/12/12 13:06:58;;;;;;;2.63;1.10;;;;;;;;;;20810879;28;20215;-69
2023/12/12 13:16:59;;;;;;;6.93;1.17;;;;;;;;;;20764001;28;20301;-69
2023/12/12 13:27:02;;;;;;;1.73;0.80;;;;;;;;;;20808839;28;20231;-70
2023/12/12 13:37:04;;;;;;;4.00;1.20;;;;;;;;;;20783446;28;20312;-70
2023/12/12 13:47:06;;;;;;;3.20;1.60;;;;;;;;;;20774391;28;20230;-69
2023/12/12 13:57:10;;;;;;;2.50;1.30;;;;;;;;;;20767694;28;20222;-69
2023/12/12 14:07:11;;;;;;;5.17;1.60;;;;;;;;;;20796646;28;20206;-70
2023/12/12 14:17:14;;;;;;;2.60;1.67;;;;;;;;;;20783420;28;20352;-70
2023/12/12 14:27:16;;;;;;;3.00;1.40;;;8.50;99.90;;;;;;20770699;28;20276;-70
2023/12/12 14:37:18;;;;;;;2.77;1.80;;;;;;;;;;20799347;28;20249;-70
2023/12/12 14:47:20;;;;;;;3.90;1.70;;;;;;;;;;20818158;28;20214;-70
2023/12/12 14:57:22;;;;;;;3.53;2.00;;;;;;;;;;20818001;28;20222;-69
2023/12/12 15:07:24;;;;;;;2.90;1.97;;;;;;;;;;20796037;28;20718;-72
2023/12/12 15:17:26;;;;;;;4.53;2.33;;;;;;;;;;20779374;28;20758;-71
2023/12/12 15:27:29;;;;;;;2.70;1.83;;;;;;;;;;20792464;28;20222;-71
2023/12/12 15:37:33;;;;;;;5.57;1.97;;;8.50;99.90;;;;;;20800184;28;20914;-72
2023/12/12 15:47:35;;;;;;;3.47;2.20;;;;;;;;;;20782653;28;20272;-72
2023/12/12 15:57:37;;;;;;;2.60;1.80;;;;;;;;;;20758138;23;20222;-73
2023/12/12 16:07:39;;;;;;;2.77;1.60;;;8.50;99.90;;;;;;20690357;28;20217;-73
2023/12/12 16:17:40;;;;;;;3.07;1.70;;;;;;;;;;20637914;28;20227;-72
2023/12/12 16:27:46;;;;;;;3.70;1.90;;;;;;;;;;20645490;28;20757;-73
2023/12/12 16:37:47;;;;;;;5.23;2.60;;;;;;;;;;20609181;28;20224;-74
2023/12/12 16:47:50;;;;;;;5.07;3.30;;;;;;;;;;20625128;28;20297;-73
2023/12/12 16:57:52;;;;;;;4.17;2.10;;;;;;;;;;20648493;28;20264;-73
2023/12/12 17:07:54;;;;;;;4.40;2.83;;;;;;;;;;20649671;28;20216;-73
2023/12/12 17:17:56;;;;;;;3.40;2.37;;;;;;;;;;20636280;28;20220;-73
2023/12/12 17:27:57;;;;;;;4.70;2.90;;;;;;;;;;20651607;28;20212;-73
2023/12/12 17:37:59;;;;;;;5.23;3.87;;;;;;;;;;20646331;28;20223;-73
2023/12/12 17:48:01;;;;;;;4.90;3.87;;;;;;;;;;20660527;28;20215;-73
2023/12/12 17:58:03;;;;;;;6.77;2.80;;;;;;;;;;20626325;28;20267;-72
2023/12/12 18:08:05;;;;;;;3.00;2.37;;;;;;;;;;20626264;28;20216;-72
2023/12/12 18:18:09;;;;;;;2.63;2.03;;;8.70;99.90;;;;;;20590562;28;20224;-73
2023/12/12 18:28:11;;;;;;;2.73;1.80;;;;;;;;;;20591237;28;20726;-71
2023/12/12 18:38:13;;;;;;;2.43;1.47;;;;;;;;;;20635003;28;20251;-73
2023/12/12 18:48:14;;;;;;;3.20;2.00;;;;;;;;;;20631113;28;20219;-72
2023/12/12 18:58:16;;;;;;;2.27;1.40;;;;;;;;;;20632758;28;20273;-72
2023/12/12 19:08:18;;;;;;;3.00;1.50;;;;;;;;;;20624864;28;20632;-73
2023/12/12 19:18:19;;;;;;;1.33;0.97;;;;;;;;;;20658679;28;20250;-73
2023/12/12 19:28:22;;;;;;;2.17;1.20;;;;;;;;;;20673727;28;20219;-72
2023/12/12 19:38:24;;;;;;;1.87;1.33;;;;;;;;;;20671422;28;20338;-73
2023/12/12 19:48:26;;;;;;;2.33;1.30;;;;;;;;;;20675763;28;20339;-73
2023/12/12 19:58:28;;;;;;;2.37;1.60;;;;;;;;;;20692137;28;20231;-73
2023/12/12 20:08:29;;;;;;;1.40;0.70;;;;;;;;;;20692926;28;20223;-71
2023/12/12 20:18:31;;;;;;;0.87;0.60;;;;;;;;;;20684416;28;20232;-72
2023/12/12 20:28:33;;;;;;;0.70;0.43;;;;;;;;;;20692607;28;20207;-72
2023/12/12 20:38:36;;;;;;;0.70;0.50;;;;;;;;;;20677471;28;20637;-71
2023/12/12 20:48:38;;;;;;;0.30;0.20;;;;;;;;;;20680194;28;20694;-73
2023/12/12 20:58:40;;;;;;;0.30;0.30;;;;;;;;;;20645135;28;20806;-73
2023/12/12 21:08:42;;;;;;;0.60;0.40;;;;;;;;;;20638421;28;20691;-73
2023/12/12 21:18:44;;;;;;;1.53;0.90;;;;;;;;;;20648435;28;20289;-72
2023/12/12 21:28:46;;;;;;;2.83;1.60;;;;;;;;;;20633868;28;20236;-73
2023/12/12 21:38:47;;;;;;;1.20;0.70;;;;;;;;;;20618153;28;20251;-73
2023/12/12 21:48:49;;;;;;;0.63;0.40;;;;;;;;;;20633468;28;20639;-73
2023/12/12 21:58:52;;;;;;;0.13;0.10;;;;;;;;;;20636413;28;20231;-73
2023/12/12 22:08:53;;;;;;;1.60;0.30;;;;;;;;;;20641020;28;20710;-73
2023/12/12 22:18:56;;;;;;;1.13;0.63;;;8.80;99.90;;;;;;20635403;28;20271;-73
2023/12/12 22:29:01;;;;;;;0.60;0.43;;;;;;;;;;20628689;28;20216;-73
2023/12/12 22:39:03;;;;;;;1.20;0.37;;;;;;;;;;20668256;23;20235;-85
2023/12/12 22:49:05;;;;;;;0.50;0.30;;;;;;;;;;20650144;28;20638;-85
2023/12/12 22:59:10;;;;;;;0.60;0.40;;;;;;;;;;20674645;28;20237;-83
2023/12/12 23:09:12;;;;;;;0.63;0.37;;;;;;;;;;20667554;28;20211;-83
2023/12/12 23:19:14;;;;;;;0.83;0.40;;;;;;;;;;20641652;28;20255;-83
2023/12/12 23:29:16;;;;;;;1.07;0.57;;;;;;;;;;20662381;28;20216;-85
2023/12/12 23:39:18;;;;;;;1.07;0.70;;;;;;;;;;20635728;28;20296;-85
2023/12/12 23:49:20;;;;;;;0.40;0.30;;;;;;;;;;20647248;28;20290;-84
2023/12/12 23:59:21;;;;;;;0.30;0.23;;;;;;;;;;20632532;28;20772;-85
